Time;durP1;ratioP1;P1;durP2;ratioP2;P2;SDS_P1;SDS_P2;PMS_P1;PMS_P2;Temp;Humidity;BMP_temperature;BMP_pressure;BME280_temperature;BME280_humidity;BME280_pressure;Samples;Min_cycle;Max_cycle;Signal;HPM_P1;HPM_P2
2023/10/28 00:00:58;;;;;;;;;;;;;;;26.09;31.96;96332.00;4919559;29;19923;-95
2023/10/28 00:03:24;;;;;;;;;;;;;;;25.78;32.01;96341.00;4921530;29;19934;-95
2023/10/28 00:05:51;;;;;;;;;;;;;;;25.66;32.00;96344.09;4920720;29;19923;-93
2023/10/28 00:08:16;;;;;;;;;;;;;;;26.00;31.91;96346.16;4911943;29;19932;-94
2023/10/28 00:10:44;;;;;;;;;;;;;;;25.67;32.79;96342.84;4912069;29;20017;-93
2023/10/28 00:13:12;;;;;;;;;;;;;;;25.74;32.04;96342.44;4910302;29;19923;-95
2023/10/28 00:15:39;;;;;;;;;;;;;;;25.42;33.08;96350.56;4914708;29;19931;-95
2023/10/28 00:18:05;;;;;;;;;;;;;;;25.67;32.17;96354.09;4914574;29;19927;-94
2023/10/28 00:20:32;;;;;;;;;;;;;;;25.00;33.64;96352.09;4916438;29;19923;-94
2023/10/28 00:22:58;;;;;;;;;;;;;;;24.48;35.04;96353.59;4913385;29;19923;-94
2023/10/28 00:25:28;;;;;;;;;;;;;;;24.86;33.76;96364.84;4917060;29;20042;-95
2023/10/28 00:27:55;;;;;;;;;;;;;;;25.68;32.37;96364.06;4897667;29;19954;-95
2023/10/28 00:30:24;;;;;;;;;;;;;;;25.96;31.88;96363.25;4917989;29;20005;-94
2023/10/28 00:32:52;;;;;;;;;;;;;;;25.74;32.64;96365.69;4915491;29;19923;-93
2023/10/28 00:35:18;;;;;;;;;;;;;;;26.27;31.44;96359.91;4911899;29;19930;-94
2023/10/28 00:37:45;;;;;;;;;;;;;;;25.44;33.65;96355.72;4911838;29;19953;-93
2023/10/28 00:40:11;;;;;;;;;;;;;;;25.39;33.37;96357.16;4913211;29;19978;-94
2023/10/28 00:42:37;;;;;;;;;;;;;;;25.52;32.61;96358.94;4903288;29;20377;-93
2023/10/28 00:45:03;;;;;;;;;;;;;;;25.88;32.11;96358.53;4912546;29;19952;-94
2023/10/28 00:47:30;;;;;;;;;;;;;;;26.11;31.79;96357.63;4915273;29;19963;-95
2023/10/28 00:49:58;;;;;;;;;;;;;;;25.96;31.89;96360.44;4906443;29;19923;-94
2023/10/28 00:52:24;;;;;;;;;;;;;;;25.83;31.78;96364.81;4912788;29;19923;-94
2023/10/28 00:54:52;;;;;;;;;;;;;;;25.35;32.37;96376.25;4910977;29;19924;-93
2023/10/28 00:57:19;;;;;;;;;;;;;;;26.16;31.23;96382.25;4903687;29;19978;-93
2023/10/28 00:59:45;;;;;;;;;;;;;;;26.49;30.62;96379.91;4915289;29;19919;-93
2023/10/28 01:02:14;;;;;;;;;;;;;;;27.32;29.11;96388.63;4913877;29;20457;-93
2023/10/28 01:04:40;;;;;;;;;;;;;;;26.80;29.67;96398.25;4916557;29;19919;-94
2023/10/28 01:07:07;;;;;;;;;;;;;;;26.88;29.61;96385.28;4916948;29;20060;-93
2023/10/28 01:09:43;;;;;;;;;;;;;;;27.28;28.96;96393.72;4918351;29;20034;-94
2023/10/28 01:12:09;;;;;;;;;;;;;;;26.49;31.32;96393.97;4915715;29;20295;-94
2023/10/28 01:14:35;;;;;;;;;;;;;;;26.54;30.15;96393.28;4918366;29;19923;-93
2023/10/28 01:17:04;;;;;;;;;;;;;;;26.76;29.83;96383.59;4908824;29;19920;-93
2023/10/28 01:19:30;;;;;;;;;;;;;;;25.73;31.01;96397.91;4913907;29;20476;-94
2023/10/28 01:21:56;;;;;;;;;;;;;;;25.77;31.67;96403.31;4911993;29;19923;-96
2023/10/28 01:24:22;;;;;;;;;;;;;;;25.41;31.72;96405.22;4895005;29;19946;-94
2023/10/28 01:26:48;;;;;;;;;;;;;;;25.92;31.49;96406.91;4913835;29;19923;-94
2023/10/28 01:29:14;;;;;;;;;;;;;;;26.87;29.95;96417.53;4911122;29;19931;-95
2023/10/28 01:31:40;;;;;;;;;;;;;;;26.58;30.19;96410.72;4912800;29;19931;-94
2023/10/28 01:34:06;;;;;;;;;;;;;;;26.53;30.56;96425.53;4910474;29;19935;-94
2023/10/28 01:36:32;;;;;;;;;;;;;;;25.80;31.94;96413.59;4918119;29;19966;-94
2023/10/28 01:38:58;;;;;;;;;;;;;;;26.19;31.05;96419.84;4917831;29;19923;-95
2023/10/28 01:41:24;;;;;;;;;;;;;;;26.15;31.24;96416.47;4913019;29;20276;-94
2023/10/28 01:43:50;;;;;;;;;;;;;;;25.39;31.82;96427.41;4911422;29;19923;-94
2023/10/28 01:46:16;;;;;;;;;;;;;;;25.51;31.97;96428.41;4913971;29;20410;-93
2023/10/28 01:48:43;;;;;;;;;;;;;;;25.02;32.87;96437.41;4899743;29;19927;-94
2023/10/28 01:51:09;;;;;;;;;;;;;;;25.30;32.14;96437.94;4908152;29;19923;-95
2023/10/28 01:53:35;;;;;;;;;;;;;;;26.17;30.94;96442.88;4902556;29;19919;-93
2023/10/28 01:56:01;;;;;;;;;;;;;;;26.05;31.14;96450.31;4910606;29;20063;-93
2023/10/28 01:58:28;;;;;;;;;;;;;;;26.36;30.92;96449.81;4914328;29;19927;-93
2023/10/28 02:00:54;;;;;;;;;;;;;;;27.17;29.49;96452.72;4916305;29;20134;-94
2023/10/28 02:03:20;;;;;;;;;;;;;;;27.34;28.96;96462.16;4893402;29;19919;-93
2023/10/28 02:05:47;;;;;;;;;;;;;;;27.66;28.75;96461.00;4911332;29;19934;-93
2023/10/28 02:08:13;;;;;;;;;;;;;;;27.33;29.17;96460.59;4910928;29;19946;-95
2023/10/28 02:10:39;;;;;;;;;;;;;;;26.89;29.97;96465.69;4913328;29;20636;-93
2023/10/28 02:13:05;;;;;;;;;;;;;;;27.60;28.85;96465.03;4916427;29;19923;-93
2023/10/28 02:15:31;;;;;;;;;;;;;;;27.67;28.32;96468.22;4909277;29;19919;-93
2023/10/28 02:17:57;;;;;;;;;;;;;;;27.66;28.79;96475.09;4913712;29;19933;-92
2023/10/28 02:20:23;;;;;;;;;;;;;;;27.92;28.33;96481.53;4914298;29;20459;-93
2023/10/28 02:22:52;;;;;;;;;;;;;;;27.46;29.58;96477.19;4908382;29;21462;-93
2023/10/28 02:25:18;;;;;;;;;;;;;;;27.88;28.48;96478.16;4916090;29;19996;-93
2023/10/28 02:27:44;;;;;;;;;;;;;;;28.46;27.66;96481.75;4916074;29;19927;-93
2023/10/28 02:30:11;;;;;;;;;;;;;;;29.03;26.88;96488.06;4913287;29;19923;-94
2023/10/28 02:32:37;;;;;;;;;;;;;;;29.58;26.21;96483.94;4914304;29;20380;-94
2023/10/28 02:35:04;;;;;;;;;;;;;;;29.71;25.67;96472.94;4922315;29;20227;-93
2023/10/28 02:37:30;;;;;;;;;;;;;;;29.65;25.86;96474.97;4919882;29;19962;-94
2023/10/28 02:39:56;;;;;;;;;;;;;;;29.29;26.30;96491.56;4919381;29;19966;-94
2023/10/28 02:42:22;;;;;;;;;;;;;;;28.80;26.95;96486.38;4919228;29;19923;-93
2023/10/28 02:44:49;;;;;;;;;;;;;;;28.79;26.93;96490.50;4924824;29;19979;-92
2023/10/28 02:47:17;;;;;;;;;;;;;;;28.86;26.94;96490.03;4914464;29;20165;-94
2023/10/28 02:49:44;;;;;;;;;;;;;;;29.35;26.31;96486.72;4913611;29;20050;-93
2023/10/28 02:52:10;;;;;;;;;;;;;;;29.59;26.07;96479.84;4914418;29;19929;-94
2023/10/28 02:54:36;;;;;;;;;;;;;;;29.61;25.85;96478.06;4897175;29;20438;-94
2023/10/28 02:57:03;;;;;;;;;;;;;;;29.75;25.57;96476.28;4912957;29;19965;-94
2023/10/28 02:59:29;;;;;;;;;;;;;;;29.71;25.50;96479.34;4919052;29;19923;-94
2023/10/28 03:01:55;;;;;;;;;;;;;;;29.75;25.52;96479.13;4918121;29;19968;-94
2023/10/28 03:04:21;;;;;;;;;;;;;;;30.00;25.38;96480.97;4916719;29;19930;-94
2023/10/28 03:06:47;;;;;;;;;;;;;;;30.05;25.21;96481.00;4914499;29;19954;-94
2023/10/28 03:09:13;;;;;;;;;;;;;;;30.10;25.23;96487.94;4918977;29;19931;-94
2023/10/28 03:11:39;;;;;;;;;;;;;;;30.11;25.03;96481.00;4912712;29;19966;-93
2023/10/28 03:14:05;;;;;;;;;;;;;;;29.96;25.04;96492.56;4906795;29;19919;-92
2023/10/28 03:16:31;;;;;;;;;;;;;;;29.85;25.53;96494.59;4909073;29;19924;-92
2023/10/28 03:18:57;;;;;;;;;;;;;;;29.91;25.19;96501.03;4916618;29;19931;-93
2023/10/28 03:21:24;;;;;;;;;;;;;;;29.90;25.34;96500.25;4919620;29;19928;-94
2023/10/28 03:23:50;;;;;;;;;;;;;;;30.03;25.20;96502.59;4921215;29;20009;-93
2023/10/28 03:26:16;;;;;;;;;;;;;;;30.01;25.23;96496.69;4923050;29;20021;-93
2023/10/28 03:28:42;;;;;;;;;;;;;;;29.77;25.68;96510.53;4911807;29;20017;-92
2023/10/28 03:31:09;;;;;;;;;;;;;;;29.53;25.95;96510.16;4921308;29;19978;-93
2023/10/28 03:33:37;;;;;;;;;;;;;;;29.32;26.15;96513.16;4912128;29;19927;-94
2023/10/28 03:36:04;;;;;;;;;;;;;;;29.31;26.33;96516.50;4908502;29;20463;-93
2023/10/28 03:38:30;;;;;;;;;;;;;;;29.39;26.38;96509.06;4914523;29;19923;-92
2023/10/28 03:40:56;;;;;;;;;;;;;;;29.58;26.39;96506.56;4908353;29;19923;-92
2023/10/28 03:43:22;;;;;;;;;;;;;;;29.53;25.88;96510.16;4910550;29;19971;-93
2023/10/28 03:45:48;;;;;;;;;;;;;;;29.59;25.68;96505.31;4913703;29;20343;-92
2023/10/28 03:48:14;;;;;;;;;;;;;;;29.47;25.60;96506.53;4915955;29;19951;-92
2023/10/28 03:50:40;;;;;;;;;;;;;;;29.55;25.66;96513.25;4912491;29;19927;-93
2023/10/28 03:53:07;;;;;;;;;;;;;;;29.86;25.31;96507.47;4917235;29;19974;-93
2023/10/28 03:55:33;;;;;;;;;;;;;;;30.04;24.99;96501.31;4904732;29;20379;-93
2023/10/28 03:57:59;;;;;;;;;;;;;;;30.11;24.78;96497.22;4914640;29;20386;-93
2023/10/28 04:00:25;;;;;;;;;;;;;;;30.05;24.75;96500.81;4905731;29;19927;-93
2023/10/28 04:02:51;;;;;;;;;;;;;;;29.89;25.06;96503.63;4920083;29;19958;-93
2023/10/28 04:05:18;;;;;;;;;;;;;;;29.67;25.10;96489.38;4907718;29;19971;-92
2023/10/28 04:07:44;;;;;;;;;;;;;;;29.59;25.29;96502.47;4917507;29;19949;-92
2023/10/28 04:10:10;;;;;;;;;;;;;;;29.29;25.25;96504.94;4917683;29;20474;-93
2023/10/28 04:12:36;;;;;;;;;;;;;;;28.90;25.79;96495.44;4908079;29;20325;-93
2023/10/28 04:15:03;;;;;;;;;;;;;;;28.85;25.75;96502.59;4914414;29;19951;-93
2023/10/28 04:17:31;;;;;;;;;;;;;;;28.95;25.61;96503.16;4907891;29;19923;-93
2023/10/28 04:19:59;;;;;;;;;;;;;;;28.91;25.35;96503.41;4905920;29;20407;-94
2023/10/28 04:22:25;;;;;;;;;;;;;;;28.83;25.31;96510.81;4909268;29;19923;-93
2023/10/28 04:24:51;;;;;;;;;;;;;;;28.72;25.30;96505.09;4913362;29;19923;-92
2023/10/28 04:27:17;;;;;;;;;;;;;;;27.61;26.73;96506.84;4896717;29;19927;-93
2023/10/28 04:29:44;;;;;;;;;;;;;;;27.89;26.16;96516.38;4916028;29;19923;-94
2023/10/28 04:32:10;;;;;;;;;;;;;;;28.10;25.84;96514.28;4903855;29;19935;-92
2023/10/28 04:34:36;;;;;;;;;;;;;;;27.51;26.42;96513.91;4901413;29;19923;-92
2023/10/28 04:37:02;;;;;;;;;;;;;;;27.67;26.23;96521.00;4911984;29;19919;-93
2023/10/28 04:39:28;;;;;;;;;;;;;;;27.20;27.02;96528.63;4909107;29;19930;-93
2023/10/28 04:41:55;;;;;;;;;;;;;;;27.12;27.01;96529.53;4916294;29;19927;-93
2023/10/28 04:44:21;;;;;;;;;;;;;;;27.67;26.25;96532.28;4916854;29;19919;-93
2023/10/28 04:46:47;;;;;;;;;;;;;;;28.25;25.51;96522.66;4914542;29;19930;-92
2023/10/28 04:49:13;;;;;;;;;;;;;;;28.23;25.43;96531.63;4913593;29;20004;-93
2023/10/28 04:51:39;;;;;;;;;;;;;;;28.49;25.09;96535.19;4906256;29;20399;-93
2023/10/28 04:54:06;;;;;;;;;;;;;;;28.81;24.58;96535.19;4905893;29;19934;-93
2023/10/28 04:56:32;;;;;;;;;;;;;;;28.86;24.23;96535.22;4906072;29;19923;-91
2023/10/28 04:58:58;;;;;;;;;;;;;;;28.78;24.35;96550.34;4906862;29;19999;-93
2023/10/28 05:01:24;;;;;;;;;;;;;;;28.25;24.93;96550.88;4906945;29;19951;-91
2023/10/28 05:03:50;;;;;;;;;;;;;;;28.28;25.01;96550.66;4909694;29;19930;-90
2023/10/28 05:06:16;;;;;;;;;;;;;;;28.28;25.17;96558.34;4913252;29;19931;-89
2023/10/28 05:08:42;;;;;;;;;;;;;;;28.17;25.01;96573.13;4910169;29;20376;-90
2023/10/28 05:11:10;;;;;;;;;;;;;;;28.35;24.79;96572.78;4894727;29;19923;-90
2023/10/28 05:13:36;;;;;;;;;;;;;;;28.60;24.25;96566.38;4909410;29;20337;-90
2023/10/28 05:16:02;;;;;;;;;;;;;;;28.31;24.52;96572.22;4903919;29;19923;-92
2023/10/28 05:18:28;;;;;;;;;;;;;;;28.36;24.40;96563.03;4903899;29;19927;-91
2023/10/28 05:20:54;;;;;;;;;;;;;;;28.39;24.29;96572.56;4905803;29;19938;-91
2023/10/28 05:23:22;;;;;;;;;;;;;;;27.75;25.18;96567.25;4898543;29;19972;-89
2023/10/28 05:25:48;;;;;;;;;;;;;;;27.89;24.87;96572.03;4893585;29;20010;-90
2023/10/28 05:28:14;;;;;;;;;;;;;;;28.03;24.96;96571.94;4915650;29;20455;-89
2023/10/28 05:30:40;;;;;;;;;;;;;;;28.13;24.67;96574.59;4916361;29;19923;-89
2023/10/28 05:33:06;;;;;;;;;;;;;;;28.08;24.89;96584.56;4915852;29;19927;-89
2023/10/28 05:35:32;;;;;;;;;;;;;;;28.02;25.12;96587.34;4914429;29;20039;-91
2023/10/28 05:37:58;;;;;;;;;;;;;;;28.04;25.02;96587.63;4915809;29;19927;-90
2023/10/28 05:40:24;;;;;;;;;;;;;;;28.10;24.64;96590.47;4915898;29;19931;-90
2023/10/28 05:42:50;;;;;;;;;;;;;;;28.13;24.70;96585.91;4915191;29;20012;-90
2023/10/28 05:45:16;;;;;;;;;;;;;;;28.14;24.62;96588.25;4915671;29;20368;-90
2023/10/28 05:47:42;;;;;;;;;;;;;;;28.42;24.39;96588.50;4916156;29;19959;-90
2023/10/28 05:50:08;;;;;;;;;;;;;;;28.69;24.23;96599.28;4912466;29;19923;-90
2023/10/28 05:52:34;;;;;;;;;;;;;;;28.81;23.91;96594.50;4915898;29;20628;-90
2023/10/28 05:55:01;;;;;;;;;;;;;;;28.73;23.71;96597.78;4916543;29;19923;-90
2023/10/28 05:57:27;;;;;;;;;;;;;;;28.73;23.94;96600.63;4915975;29;19915;-90
2023/10/28 05:59:53;;;;;;;;;;;;;;;28.68;23.95;96609.06;4916120;29;19923;-91
2023/10/28 06:02:20;;;;;;;;;;;;;;;28.84;23.79;96604.81;4912151;29;20041;-90
2023/10/28 06:04:46;;;;;;;;;;;;;;;28.86;23.79;96610.72;4898061;29;19919;-90
2023/10/28 06:07:12;;;;;;;;;;;;;;;28.95;23.37;96613.38;4916237;29;19926;-90
2023/10/28 06:09:38;;;;;;;;;;;;;;;28.95;23.95;96622.63;4915718;29;20307;-89
2023/10/28 06:12:04;;;;;;;;;;;;;;;29.03;23.17;96625.78;4916158;29;19926;-90
2023/10/28 06:14:30;;;;;;;;;;;;;;;28.49;24.14;96633.25;4918259;29;19920;-91
2023/10/28 06:16:57;;;;;;;;;;;;;;;28.60;24.06;96644.66;4914116;29;19927;-91
2023/10/28 06:19:23;;;;;;;;;;;;;;;28.68;24.33;96643.72;4913882;29;19932;-89
2023/10/28 06:21:51;;;;;;;;;;;;;;;28.72;24.15;96646.31;4925752;29;19923;-96
2023/10/28 06:24:18;;;;;;;;;;;;;;;28.84;24.48;96647.19;4918710;29;19931;-93
2023/10/28 06:26:45;;;;;;;;;;;;;;;28.94;24.39;96654.22;4924758;29;19924;-96
2023/10/28 06:29:12;;;;;;;;;;;;;;;29.18;24.27;96657.50;4916187;29;19919;-96
2023/10/28 06:31:39;;;;;;;;;;;;;;;28.93;24.58;96666.78;4929933;29;19991;-96
2023/10/28 06:34:05;;;;;;;;;;;;;;;28.65;24.88;96661.69;4921280;29;19926;-95
2023/10/28 06:36:35;;;;;;;;;;;;;;;28.96;25.11;96671.44;4931796;29;19931;-95
2023/10/28 06:39:02;;;;;;;;;;;;;;;29.13;24.88;96675.16;4927079;29;19962;-95
2023/10/28 06:41:28;;;;;;;;;;;;;;;29.47;24.35;96681.88;4929905;29;19975;-96
2023/10/28 06:43:54;;;;;;;;;;;;;;;29.61;24.17;96681.72;4903155;29;20154;-93
2023/10/28 06:46:20;;;;;;;;;;;;;;;29.51;24.01;96683.19;4908853;29;20320;-95
2023/10/28 06:48:46;;;;;;;;;;;;;;;29.52;23.91;96690.41;4931588;29;19919;-96
2023/10/28 06:51:12;;;;;;;;;;;;;;;29.73;24.19;96691.84;4920354;29;19919;-96
2023/10/28 06:53:40;;;;;;;;;;;;;;;29.90;24.26;96697.59;4928290;29;19915;-96
2023/10/28 06:56:07;;;;;;;;;;;;;;;30.05;24.21;96701.03;4933017;29;19951;-96
2023/10/28 06:58:33;;;;;;;;;;;;;;;30.02;23.98;96702.03;4914472;29;19926;-96
2023/10/28 07:00:59;;;;;;;;;;;;;;;29.82;23.69;96705.81;4938298;29;19923;-96
2023/10/28 07:03:27;;;;;;;;;;;;;;;29.74;24.03;96712.38;4945674;23;20364;-95
2023/10/28 07:05:54;;;;;;;;;;;;;;;29.77;24.36;96712.19;4910635;29;19930;-96
2023/10/28 07:08:20;;;;;;;;;;;;;;;29.87;24.24;96715.59;4905767;29;19920;-96
2023/10/28 07:10:47;;;;;;;;;;;;;;;30.03;24.45;96723.41;4912144;29;19926;-96
2023/10/28 07:13:13;;;;;;;;;;;;;;;30.00;24.25;96727.25;4917236;29;19950;-96
2023/10/28 07:15:40;;;;;;;;;;;;;;;30.08;24.33;96733.97;4917862;29;19908;-96
2023/10/28 07:18:08;;;;;;;;;;;;;;;29.69;25.05;96744.25;4899441;29;20277;-96
2023/10/28 07:20:34;;;;;;;;;;;;;;;29.85;25.12;96744.38;4919473;29;19919;-96
2023/10/28 07:23:04;;;;;;;;;;;;;;;29.97;24.90;96742.41;4914450;29;20385;-96
2023/10/28 07:25:30;;;;;;;;;;;;;;;29.80;24.70;96747.19;4901221;29;19915;-95
2023/10/28 07:27:56;;;;;;;;;;;;;;;29.23;25.03;96750.84;4897273;29;20022;-96
2023/10/28 07:30:22;;;;;;;;;;;;;;;29.28;25.54;96758.63;4908693;29;19926;-96
2023/10/28 07:32:49;;;;;;;;;;;;;;;28.96;25.29;96753.41;4898523;29;19980;-96
2023/10/28 07:35:16;;;;;;;;;;;;;;;29.19;25.50;96764.44;4911484;29;19932;-96
2023/10/28 07:37:42;;;;;;;;;;;;;;;29.17;25.25;96771.84;4911460;29;19923;-94
2023/10/28 07:40:11;;;;;;;;;;;;;;;29.00;25.57;96779.38;4907147;29;20022;-95
2023/10/28 07:42:37;;;;;;;;;;;;;;;28.31;25.99;96777.56;4906144;29;19919;-95
2023/10/28 07:45:04;;;;;;;;;;;;;;;28.62;26.38;96777.69;4905185;29;20060;-96
2023/10/28 07:47:31;;;;;;;;;;;;;;;28.80;26.05;96782.25;4888722;29;19923;-96
2023/10/28 07:49:57;;;;;;;;;;;;;;;28.75;25.93;96793.00;4907829;29;20419;-94
2023/10/28 07:52:23;;;;;;;;;;;;;;;28.55;26.26;96792.22;4901923;29;20014;-94
2023/10/28 07:54:49;;;;;;;;;;;;;;;28.31;26.11;96789.59;4882156;29;19995;-96
2023/10/28 07:57:15;;;;;;;;;;;;;;;28.48;25.88;96793.41;4903333;29;19943;-95
2023/10/28 07:59:42;;;;;;;;;;;;;;;29.13;25.72;96802.38;4911662;29;19931;-95
2023/10/28 08:02:10;;;;;;;;;;;;;;;29.13;25.37;96808.03;4908635;29;19927;-95
2023/10/28 08:04:36;;;;;;;;;;;;;;;29.75;24.78;96799.63;4903509;29;19923;-95
2023/10/28 08:07:02;;;;;;;;;;;;;;;29.65;24.80;96806.72;4908104;29;20006;-95
2023/10/28 08:09:28;;;;;;;;;;;;;;;28.81;26.53;96812.84;4900701;29;19952;-93
2023/10/28 08:11:54;;;;;;;;;;;;;;;29.17;26.13;96819.91;4903419;29;19931;-96
2023/10/28 08:14:21;;;;;;;;;;;;;;;28.72;27.49;96815.81;4899064;29;19987;-91
2023/10/28 08:16:47;;;;;;;;;;;;;;;29.14;25.93;96812.41;4895942;29;19977;-93
2023/10/28 08:19:13;;;;;;;;;;;;;;;29.00;26.24;96824.59;4899080;29;19963;-89
2023/10/28 08:21:39;;;;;;;;;;;;;;;28.75;26.31;96818.41;4894891;29;20360;-88
2023/10/28 08:24:07;;;;;;;;;;;;;;;29.10;26.27;96820.34;4897539;29;19984;-94
2023/10/28 08:26:33;;;;;;;;;;;;;;;28.98;26.32;96818.69;4896784;29;20288;-91
2023/10/28 08:29:00;;;;;;;;;;;;;;;29.13;25.56;96830.63;4890503;29;19931;-94
2023/10/28 08:31:27;;;;;;;;;;;;;;;29.82;25.08;96829.53;4890523;29;20391;-94
2023/10/28 08:33:53;;;;;;;;;;;;;;;29.47;26.44;96821.25;4897673;29;20588;-93
2023/10/28 08:36:19;;;;;;;;;;;;;;;29.57;25.03;96836.00;4897770;29;19955;-94
2023/10/28 08:38:47;;;;;;;;;;;;;;;29.35;24.61;96836.56;4895756;29;19965;-95
2023/10/28 08:41:16;;;;;;;;;;;;;;;29.84;24.59;96833.41;4896849;29;19924;-93
2023/10/28 08:43:45;;;;;;;;;;;;;;;30.41;24.37;96844.59;4909764;29;19909;-92
2023/10/28 08:46:11;;;;;;;;;;;;;;;29.75;24.46;96841.28;4898902;29;19923;-87
2023/10/28 08:48:38;;;;;;;;;;;;;;;30.17;24.68;96844.19;4878797;29;20370;-91
2023/10/28 08:51:08;;;;;;;;;;;;;;;30.52;24.37;96849.56;4891622;29;19927;-90
2023/10/28 08:53:34;;;;;;;;;;;;;;;30.23;25.00;96847.81;4878848;29;19938;-91
2023/10/28 08:56:02;;;;;;;;;;;;;;;29.56;24.55;96859.88;4889859;29;19931;-91
2023/10/28 08:58:28;;;;;;;;;;;;;;;30.06;24.77;96861.88;4895392;29;19968;-90
2023/10/28 09:00:55;;;;;;;;;;;;;;;30.15;24.38;96866.56;4876961;29;20399;-88
2023/10/28 09:03:22;;;;;;;;;;;;;;;30.13;24.96;96863.44;4894777;29;19934;-90
2023/10/28 09:05:50;;;;;;;;;;;;;;;30.08;24.68;96876.28;4887636;29;19996;-90
2023/10/28 09:08:16;;;;;;;;;;;;;;;29.69;24.28;96861.03;4888637;29;19924;-89
2023/10/28 09:10:42;;;;;;;;;;;;;;;29.32;25.30;96879.97;4892632;29;20299;-90
2023/10/28 09:13:08;;;;;;;;;;;;;;;29.76;24.79;96873.97;4893152;29;19923;-90
2023/10/28 09:15:34;;;;;;;;;;;;;;;29.57;25.62;96878.41;4894689;29;20392;-91
2023/10/28 09:18:01;;;;;;;;;;;;;;;30.01;24.99;96879.56;4895540;29;19923;-88
2023/10/28 09:20:27;;;;;;;;;;;;;;;30.47;24.74;96881.47;4893696;29;19927;-90
2023/10/28 09:22:53;;;;;;;;;;;;;;;29.89;24.72;96885.69;4890252;29;19923;-88
2023/10/28 09:25:21;;;;;;;;;;;;;;;29.72;25.18;96885.50;4892719;29;19930;-89
2023/10/28 09:27:48;;;;;;;;;;;;;;;28.44;27.20;96876.78;4886789;29;19931;-89
2023/10/28 09:30:15;;;;;;;;;;;;;;;28.96;25.77;96884.19;4868887;29;20051;-90
2023/10/28 09:32:41;;;;;;;;;;;;;;;29.68;25.45;96884.97;4888761;29;19942;-90
2023/10/28 09:35:08;;;;;;;;;;;;;;;28.54;27.26;96878.22;4884653;29;20360;-91
2023/10/28 09:37:35;;;;;;;;;;;;;;;29.96;25.30;96891.66;4890176;29;19956;-93
2023/10/28 09:40:08;;;;;;;;;;;;;;;30.26;24.99;96888.50;4888707;29;19945;-92
2023/10/28 09:42:35;;;;;;;;;;;;;;;29.93;24.34;96881.34;4895571;29;19927;-92
2023/10/28 09:45:05;;;;;;;;;;;;;;;29.35;25.37;96882.59;4884043;29;19924;-90
2023/10/28 09:47:38;;;;;;;;;;;;;;;28.94;25.50;96880.28;4899323;29;19927;-93
2023/10/28 09:50:06;;;;;;;;;;;;;;;30.35;25.08;96883.47;4895104;29;19927;-93
2023/10/28 09:52:32;;;;;;;;;;;;;;;30.54;25.54;96889.50;4878645;29;20369;-91
2023/10/28 09:55:02;;;;;;;;;;;;;;;30.43;25.15;96895.09;4895195;29;20006;-86
2023/10/28 09:57:30;;;;;;;;;;;;;;;30.16;25.01;96878.66;4890897;29;19924;-88
2023/10/28 09:59:57;;;;;;;;;;;;;;;30.74;23.82;96895.00;4879168;29;20477;-89
2023/10/28 10:02:32;;;;;;;;;;;;;;;31.07;24.18;96895.19;4877452;29;19923;-93
2023/10/28 10:05:12;;;;;;;;;;;;;;;31.11;23.69;96895.69;4890806;29;19927;-91
2023/10/28 10:07:38;;;;;;;;;;;;;;;30.98;23.30;96892.56;4891048;29;19923;-92
2023/10/28 10:10:15;;;;;;;;;;;;;;;30.55;24.27;96888.97;4877017;29;19931;-92
2023/10/28 10:12:42;;;;;;;;;;;;;;;31.33;23.42;96887.28;4887752;29;19919;-94
2023/10/28 10:15:14;;;;;;;;;;;;;;;31.44;23.93;96880.84;4893313;29;19927;-91
2023/10/28 10:17:48;;;;;;;;;;;;;;;31.49;23.40;96882.16;4889529;29;19935;-92
2023/10/28 10:20:23;;;;;;;;;;;;;;;31.03;23.84;96888.19;4892632;29;19931;-91
2023/10/28 10:22:53;;;;;;;;;;;;;;;31.69;22.59;96884.78;4898573;29;19919;-96
2023/10/28 10:25:29;;;;;;;;;;;;;;;31.46;23.21;96886.03;4904512;29;20379;-95
2023/10/28 10:28:05;;;;;;;;;;;;;;;30.83;23.46;96885.53;4892645;29;20380;-94
2023/10/28 10:30:35;;;;;;;;;;;;;;;30.94;22.81;96889.22;4901580;29;19931;-94
2023/10/28 10:33:01;;;;;;;;;;;;;;;31.47;23.42;96898.91;4896444;29;20423;-94
2023/10/28 10:35:30;;;;;;;;;;;;;;;31.04;22.92;96896.19;4884559;29;19971;-94
2023/10/28 10:38:09;;;;;;;;;;;;;;;30.98;23.32;96897.47;4903060;29;19927;-96
2023/10/28 10:40:41;;;;;;;;;;;;;;;31.55;22.74;96897.16;4901800;29;19924;-95
2023/10/28 10:43:10;;;;;;;;;;;;;;;31.61;22.80;96893.03;4894679;29;19931;-95
2023/10/28 10:45:36;;;;;;;;;;;;;;;31.86;22.62;96894.06;4894826;29;19924;-93
2023/10/28 10:48:03;;;;;;;;;;;;;;;31.62;22.10;96896.63;4895083;29;20423;-93
2023/10/28 10:50:31;;;;;;;;;;;;;;;32.01;22.47;96894.63;4895748;29;19963;-95
2023/10/28 10:53:00;;;;;;;;;;;;;;;31.78;23.08;96890.97;4885133;29;19930;-94
2023/10/28 10:55:28;;;;;;;;;;;;;;;31.67;22.47;96890.19;4883771;29;19934;-94
2023/10/28 10:57:54;;;;;;;;;;;;;;;31.40;23.75;96886.00;4894438;29;20586;-95
2023/10/28 11:00:21;;;;;;;;;;;;;;;31.63;22.32;96896.13;4878245;29;19927;-96
2023/10/28 11:02:48;;;;;;;;;;;;;;;31.24;22.56;96892.41;4890793;29;19931;-94
2023/10/28 11:05:14;;;;;;;;;;;;;;;31.15;23.48;96904.75;4876923;29;20022;-93
2023/10/28 11:07:45;;;;;;;;;;;;;;;31.00;22.99;96914.72;4906243;29;20064;-96
2023/10/28 11:10:12;;;;;;;;;;;;;;;31.47;22.84;96907.44;4897587;29;19935;-95
2023/10/28 11:12:38;;;;;;;;;;;;;;;31.22;23.03;96912.78;4896019;29;19920;-94
2023/10/28 11:15:06;;;;;;;;;;;;;;;30.36;23.71;96906.91;4907512;29;19956;-94
2023/10/28 11:17:32;;;;;;;;;;;;;;;30.62;25.62;96901.91;4893119;29;19935;-91
2023/10/28 11:20:02;;;;;;;;;;;;;;;30.01;24.02;96909.97;4890016;29;19928;-92
2023/10/28 11:22:29;;;;;;;;;;;;;;;30.45;23.57;96913.16;4889267;29;20300;-90
2023/10/28 11:24:55;;;;;;;;;;;;;;;31.44;23.63;96912.06;4902848;29;19934;-93
2023/10/28 11:27:23;;;;;;;;;;;;;;;30.89;25.29;96912.63;4892878;29;19924;-93
2023/10/28 11:29:50;;;;;;;;;;;;;;;30.35;23.30;96908.94;4895774;29;20494;-94
2023/10/28 11:32:19;;;;;;;;;;;;;;;31.08;23.16;96908.09;4905884;29;19963;-94
2023/10/28 11:34:46;;;;;;;;;;;;;;;31.10;22.20;96913.22;4895427;29;19927;-96
2023/10/28 11:37:12;;;;;;;;;;;;;;;31.78;22.82;96915.75;4902794;29;20440;-96
2023/10/28 11:39:39;;;;;;;;;;;;;;;32.26;22.01;96919.13;4897689;29;19935;-96
2023/10/28 11:42:10;;;;;;;;;;;;;;;32.00;22.48;96921.47;4895577;29;19920;-90
2023/10/28 11:44:37;;;;;;;;;;;;;;;30.55;27.59;96913.72;4893106;29;19930;-89
2023/10/28 11:47:03;;;;;;;;;;;;;;;30.60;23.73;96902.41;4888680;29;19923;-90
2023/10/28 11:49:29;;;;;;;;;;;;;;;29.47;25.32;96906.09;4886828;29;19963;-90
2023/10/28 11:51:55;;;;;;;;;;;;;;;29.70;25.12;96915.56;4891374;29;19974;-89
2023/10/28 11:54:22;;;;;;;;;;;;;;;30.21;23.98;96914.72;4878586;29;19920;-90
2023/10/28 11:56:48;;;;;;;;;;;;;;;30.45;23.96;96918.81;4888830;29;20444;-90
2023/10/28 11:59:14;;;;;;;;;;;;;;;30.17;23.71;96914.97;4887532;29;19928;-91
2023/10/28 12:01:40;;;;;;;;;;;;;;;30.98;23.10;96918.09;4885356;29;19931;-91
2023/10/28 12:04:09;;;;;;;;;;;;;;;30.19;23.83;96918.06;4894878;29;20031;-89
2023/10/28 12:06:36;;;;;;;;;;;;;;;30.80;23.67;96918.50;4891302;29;19920;-91
2023/10/28 12:09:05;;;;;;;;;;;;;;;30.54;23.66;96924.28;4896947;29;19930;-90
2023/10/28 12:11:31;;;;;;;;;;;;;;;30.96;23.60;96922.72;4892085;29;19929;-90
2023/10/28 12:13:58;;;;;;;;;;;;;;;30.32;22.93;96915.59;4892177;29;19931;-89
2023/10/28 12:16:24;;;;;;;;;;;;;;;29.80;23.54;96920.56;4893997;29;19934;-89
2023/10/28 12:18:51;;;;;;;;;;;;;;;29.42;24.15;96932.28;4892094;29;19953;-89
2023/10/28 12:21:17;;;;;;;;;;;;;;;29.03;24.42;96943.09;4894209;29;19927;-91
2023/10/28 12:23:44;;;;;;;;;;;;;;;28.80;24.78;96940.47;4894979;29;20348;-92
2023/10/28 12:26:13;;;;;;;;;;;;;;;29.16;24.49;96946.34;4893371;29;19936;-96
2023/10/28 12:28:39;;;;;;;;;;;;;;;29.91;22.86;96934.84;4889339;29;20299;-92
2023/10/28 12:31:05;;;;;;;;;;;;;;;30.34;22.89;96938.53;4902014;29;19919;-93
2023/10/28 12:33:31;;;;;;;;;;;;;;;30.39;23.18;96932.16;4895240;29;19923;-94
2023/10/28 12:35:57;;;;;;;;;;;;;;;30.36;22.91;96936.00;4894564;29;19948;-94
2023/10/28 12:38:24;;;;;;;;;;;;;;;30.04;24.75;96943.69;4880543;29;19935;-93
2023/10/28 12:40:50;;;;;;;;;;;;;;;30.58;22.77;96936.13;4904458;29;19996;-95
2023/10/28 12:43:17;;;;;;;;;;;;;;;30.71;23.45;96941.38;4907174;29;19928;-95
2023/10/28 12:45:43;;;;;;;;;;;;;;;30.28;23.05;96934.09;4891759;29;19930;-93